Time;durP1;ratioP1;P1;durP2;ratioP2;P2;SDS_P1;SDS_P2;PMS_P1;PMS_P2;Temp;Humidity;BMP_temperature;BMP_pressure;BME280_temperature;BME280_humidity;BME280_pressure;Samples;Min_cycle;Max_cycle;Signal;HPM_P1;HPM_P2
2023/04/15 00:00:09;;;;;;;1.10;1.10;;;;;;;;;;5021262;28;20664;-53
2023/04/15 00:02:36;;;;;;;0.93;0.93;;;;;;;;;;5016630;28;20948;-53
2023/04/15 00:05:02;;;;;;;1.10;1.10;;;;;;;;;;5011834;28;20184;-53
2023/04/15 00:07:28;;;;;;;0.90;0.90;;;;;;;;;;5021913;28;20196;-53
2023/04/15 00:09:56;;;;;;;1.00;1.00;;;;;;;;;;5018063;28;20193;-53
2023/04/15 00:12:22;;;;;;;1.07;1.07;;;;;;;;;;5020591;28;20193;-53
2023/04/15 00:14:48;;;;;;;1.00;1.00;;;;;;;;;;5034077;28;20600;-53
2023/04/15 00:17:14;;;;;;;0.90;0.90;;;;;;;;;;5038608;28;20222;-54
2023/04/15 00:19:41;;;;;;;1.00;1.00;;;;;;;;;;5035281;28;20544;-53
2023/04/15 00:22:08;;;;;;;0.90;0.90;;;;;;;;;;5038045;28;20179;-53
2023/04/15 00:24:34;;;;;;;1.00;1.00;;;;;;;;;;5036738;28;20210;-53
2023/04/15 00:26:59;;;;;;;1.00;1.00;;;;;;;;;;5040483;28;20268;-53
2023/04/15 00:29:25;;;;;;;0.80;0.80;;;;;;;;;;5042919;28;20690;-53
2023/04/15 00:31:51;;;;;;;0.90;0.90;;;;;;;;;;5036825;28;20192;-53
2023/04/15 00:34:18;;;;;;;1.00;1.00;;;;;;;;;;5040737;28;20559;-53
2023/04/15 00:36:44;;;;;;;0.90;0.90;;;;;;;;;;5039274;28;20196;-53
2023/04/15 00:39:10;;;;;;;1.00;1.00;;;;;;;;;;5037734;28;20203;-53
2023/04/15 00:41:38;;;;;;;1.10;1.10;;;;;;;;;;5036516;28;20226;-53
2023/04/15 00:44:05;;;;;;;1.13;1.13;;;;;;;;;;5038615;28;20811;-53
2023/04/15 00:46:31;;;;;;;0.90;0.90;;;;;;;;;;5036367;28;20188;-53
2023/04/15 00:48:57;;;;;;;1.00;1.00;;;;;;;;;;5036517;28;20195;-53
2023/04/15 00:51:24;;;;;;;1.10;1.10;;;;;;;;;;5042378;28;20212;-53
2023/04/15 00:53:50;;;;;;;1.00;1.00;;;;;;;;;;5038289;28;20193;-53
2023/04/15 00:56:16;;;;;;;1.00;1.00;;;;;;;;;;5026247;28;20192;-53
2023/04/15 00:58:42;;;;;;;0.90;0.90;;;;;;;;;;5031154;28;20216;-53
2023/04/15 01:01:08;;;;;;;1.20;1.20;;;;;;;;;;5032975;28;20199;-53
2023/04/15 01:03:35;;;;;;;1.00;1.00;;;;;;;;;;5037231;28;20196;-53
2023/04/15 01:06:00;;;;;;;1.27;1.27;;;;;;;;;;5020682;28;20195;-53
2023/04/15 01:08:27;;;;;;;1.20;1.20;;;;;;;;;;5033730;28;20192;-53
2023/04/15 01:10:55;;;;;;;1.20;1.20;;;;;;;;;;5035291;28;20188;-53
2023/04/15 01:13:21;;;;;;;1.10;1.10;;;;;;;;;;5037978;28;20252;-53
2023/04/15 01:15:47;;;;;;;1.10;1.10;;;;;;;;;;5034181;28;20235;-53
2023/04/15 01:18:14;;;;;;;1.20;1.20;;;;;;;;;;5035639;28;20256;-54
2023/04/15 01:20:40;;;;;;;1.40;1.40;;;;;;;;;;5037978;28;20624;-53
2023/04/15 01:23:06;;;;;;;1.40;1.40;;;;;;;;;;5032016;28;20184;-53
2023/04/15 01:25:32;;;;;;;1.50;1.50;;;;;;;;;;5034072;28;20193;-53
2023/04/15 01:27:59;;;;;;;1.47;1.47;;;;;;;;;;5036466;28;20276;-53
2023/04/15 01:30:25;;;;;;;1.40;1.40;;;;;;;;;;5034091;28;20929;-52
2023/04/15 01:32:52;;;;;;;1.40;1.40;;;;;;;;;;5039278;28;20207;-53
2023/04/15 01:35:18;;;;;;;1.27;1.27;;;;;;;;;;5035461;28;20606;-53
2023/04/15 01:37:44;;;;;;;1.40;1.40;;;;;;;;;;5038490;28;20231;-53
2023/04/15 01:40:10;;;;;;;1.43;1.43;;;;;;;;;;5035927;28;20188;-53
2023/04/15 01:42:36;;;;;;;1.30;1.30;;;;;;;;;;5031716;28;20198;-56
2023/04/15 01:45:02;;;;;;;1.20;1.20;;;;;;;;;;5033886;28;20191;-53
2023/04/15 01:47:28;;;;;;;1.30;1.30;;;;;;;;;;5042152;28;20259;-52
2023/04/15 01:49:55;;;;;;;1.30;1.30;;;;;;;;;;5036863;28;20230;-53
2023/04/15 01:52:20;;;;;;;1.20;1.20;;;;;;;;;;5030655;28;20564;-53
2023/04/15 01:54:46;;;;;;;1.30;1.30;;;;;;;;;;5022292;28;20196;-53
2023/04/15 01:57:12;;;;;;;1.40;1.40;;;;;;;;;;5010314;28;20211;-53
2023/04/15 01:59:38;;;;;;;1.20;1.20;;;;;;;;;;5014830;28;20183;-53
2023/04/15 02:02:05;;;;;;;1.30;1.30;;;;;;;;;;5023501;28;20188;-53
2023/04/15 02:04:31;;;;;;;1.20;1.20;;;;;;;;;;5027911;28;20199;-53
2023/04/15 02:06:57;;;;;;;1.23;1.23;;;;;;;;;;5034163;28;20196;-53
2023/04/15 02:09:23;;;;;;;1.40;1.40;;;;;;;;;;5036752;28;20188;-52
2023/04/15 02:11:50;;;;;;;1.30;1.30;;;;;;;;;;5035603;28;20606;-53
2023/04/15 02:14:16;;;;;;;1.23;1.23;;;;;;;;;;5026744;28;20271;-53
2023/04/15 02:16:42;;;;;;;1.53;1.53;;;;;;;;;;5031304;28;20719;-53
2023/04/15 02:19:08;;;;;;;1.37;1.37;;;;;;;;;;5039287;28;20196;-53
2023/04/15 02:21:35;;;;;;;1.10;1.10;;;;;;;;;;5033143;28;20286;-53
2023/04/15 02:24:03;;;;;;;0.93;0.93;;;;;;;;;;5032043;28;20557;-52
2023/04/15 02:26:31;;;;;;;0.90;0.90;;;;;;;;;;5031517;28;20184;-53
2023/04/15 02:28:57;;;;;;;0.90;0.90;;;;;;;;;;5040933;28;20196;-53
2023/04/15 02:31:23;;;;;;;1.00;1.00;;;;;;;;;;5034887;28;20207;-52
2023/04/15 02:33:49;;;;;;;0.90;0.90;;;;;;;;;;5035397;28;20192;-53
2023/04/15 02:36:15;;;;;;;0.90;0.90;;;;;;;;;;5039196;28;20195;-53
2023/04/15 02:38:42;;;;;;;0.90;0.90;;;;;;;;;;5040955;28;20294;-52
2023/04/15 02:41:09;;;;;;;0.90;0.90;;;;;;;;;;5038260;28;20181;-53
2023/04/15 02:43:35;;;;;;;0.80;0.80;;;;;;;;;;5038237;28;20830;-53
2023/04/15 02:46:01;;;;;;;1.17;1.17;;;;;;;;;;5036111;28;20442;-53
2023/04/15 02:48:27;;;;;;;1.23;1.23;;;;;;;;;;5033276;28;20208;-52
2023/04/15 02:50:53;;;;;;;1.40;1.40;;;;;;;;;;5042370;28;20631;-53
2023/04/15 02:53:19;;;;;;;1.33;1.33;;;;;;;;;;5040168;28;20303;-53
2023/04/15 02:55:45;;;;;;;1.30;1.30;;;;;;;;;;5032492;28;20188;-53
2023/04/15 02:58:11;;;;;;;1.20;1.20;;;;;;;;;;5032010;28;20723;-53
2023/04/15 03:00:37;;;;;;;1.40;1.40;;;;;;;;;;5030473;28;20192;-52
2023/04/15 03:03:04;;;;;;;1.30;1.30;;;;;;;;;;5030330;28;20242;-53
2023/04/15 03:05:30;;;;;;;1.40;1.40;;;;;;;;;;5032359;28;20869;-53
2023/04/15 03:07:56;;;;;;;1.20;1.20;;;;;;;;;;5033817;28;20196;-53
2023/04/15 03:10:22;;;;;;;1.33;1.33;;;;;;;;;;5032728;28;20258;-53
2023/04/15 03:12:48;;;;;;;1.20;1.20;;;;;;;;;;5034321;28;20184;-54
2023/04/15 03:15:14;;;;;;;1.20;1.20;;;;;;;;;;5032835;28;20215;-53
2023/04/15 03:17:40;;;;;;;1.17;1.17;;;;;;;;;;5038486;28;20204;-53
2023/04/15 03:20:07;;;;;;;1.10;1.10;;;;;;;;;;5036124;28;20234;-53
2023/04/15 03:22:33;;;;;;;1.40;1.40;;;;;;;;;;5032364;28;20183;-53
2023/04/15 03:24:59;;;;;;;1.20;1.20;;;;;;;;;;5034350;28;20539;-53
2023/04/15 03:27:25;;;;;;;1.30;1.30;;;;;;;;;;5033815;28;20714;-53
2023/04/15 03:29:51;;;;;;;1.30;1.30;;;;;;;;;;5027529;28;20575;-52
2023/04/15 03:32:17;;;;;;;1.30;1.30;;;;;;;;;;5031409;28;20547;-53
2023/04/15 03:34:43;;;;;;;1.20;1.20;;;;;;;;;;5040658;28;20596;-53
2023/04/15 03:37:09;;;;;;;1.20;1.20;;;;;;;;;;5035914;28;20204;-53
2023/04/15 03:39:35;;;;;;;1.30;1.30;;;;;;;;;;5029422;28;20285;-53
2023/04/15 03:42:02;;;;;;;1.30;1.30;;;;;;;;;;5030461;28;20218;-53
2023/04/15 03:44:28;;;;;;;1.40;1.40;;;;;;;;;;5030520;28;20287;-52
2023/04/15 03:46:54;;;;;;;1.40;1.40;;;;;;;;;;5035695;28;20286;-53
2023/04/15 03:49:21;;;;;;;1.30;1.30;;;;;;;;;;5032962;28;20177;-52
2023/04/15 03:51:47;;;;;;;1.30;1.30;;;;;;;;;;5026967;28;20196;-53
2023/04/15 03:54:14;;;;;;;1.20;1.20;;;;;;;;;;5037406;28;20192;-53
2023/04/15 03:56:40;;;;;;;1.27;1.27;;;;;;;;;;5028666;28;20966;-53
2023/04/15 03:59:06;;;;;;;1.10;1.10;;;;;;;;;;5033520;28;20674;-53
2023/04/15 04:01:32;;;;;;;1.20;1.20;;;;;;;;;;5028750;28;20177;-53
2023/04/15 04:03:58;;;;;;;1.10;1.10;;;;;;;;;;5036176;28;20207;-53
2023/04/15 04:06:23;;;;;;;1.40;1.40;;;;;;;;;;5039528;28;20204;-53
2023/04/15 04:08:49;;;;;;;1.20;1.20;;;;;;;;;;5041812;28;20192;-53
2023/04/15 04:11:16;;;;;;;1.20;1.20;;;;;;;;;;5039367;28;20241;-54
2023/04/15 04:13:41;;;;;;;1.30;1.30;;;;;;;;;;5039827;28;20239;-53
2023/04/15 04:16:07;;;;;;;1.27;1.27;;;;;;;;;;5039915;28;20699;-53
2023/04/15 04:18:33;;;;;;;1.20;1.20;;;;;;;;;;5035510;28;20711;-53
2023/04/15 04:20:59;;;;;;;1.20;1.20;;;;;;;;;;5034662;28;20193;-53
2023/04/15 04:23:25;;;;;;;1.30;1.30;;;;;;;;;;5040384;28;20271;-53
2023/04/15 04:25:52;;;;;;;1.13;1.13;;;;;;;;;;5038499;28;20611;-53
2023/04/15 04:28:18;;;;;;;1.27;1.27;;;;;;;;;;5040509;28;20202;-53
2023/04/15 04:30:44;;;;;;;1.20;1.20;;;;;;;;;;5037166;28;20195;-53
2023/04/15 04:33:10;;;;;;;1.23;1.23;;;;;;;;;;5041615;28;20644;-53
2023/04/15 04:35:36;;;;;;;1.30;1.30;;;;;;;;;;5035983;28;20184;-53
2023/04/15 04:38:04;;;;;;;1.20;1.20;;;;;;;;;;5036374;28;20644;-53
2023/04/15 04:40:31;;;;;;;1.10;1.10;;;;;;;;;;5038140;28;20191;-53
2023/04/15 04:42:57;;;;;;;1.33;1.33;;;;;;;;;;5039444;28;20203;-53
2023/04/15 04:45:23;;;;;;;1.20;1.20;;;;;;;;;;5038562;28;20197;-53
2023/04/15 04:47:49;;;;;;;1.20;1.20;;;;;;;;;;5041926;28;20608;-53
2023/04/15 04:50:15;;;;;;;1.10;1.10;;;;;;;;;;5038196;28;20794;-53
2023/04/15 04:52:41;;;;;;;1.10;1.10;;;;;;;;;;5041025;28;20188;-53
2023/04/15 04:55:07;;;;;;;1.20;1.20;;;;;;;;;;5039774;28;20222;-53
2023/04/15 04:57:34;;;;;;;1.30;1.30;;;;;;;;;;5034596;28;20207;-53
2023/04/15 05:00:02;;;;;;;1.37;1.37;;;;;;;;;;5029931;28;20188;-53
2023/04/15 05:02:28;;;;;;;1.20;1.20;;;;;;;;;;5028583;28;20280;-53
2023/04/15 05:04:54;;;;;;;1.20;1.20;;;;;;;;;;5040672;28;20298;-53
2023/04/15 05:07:20;;;;;;;1.10;1.10;;;;;;;;;;5025930;28;20276;-53
2023/04/15 05:09:46;;;;;;;1.20;1.20;;;;;;;;;;5033073;28;20191;-53
2023/04/15 05:12:13;;;;;;;1.20;1.20;;;;;;;;;;5034096;28;20208;-53
2023/04/15 05:14:40;;;;;;;1.10;1.10;;;;;;;;;;5018377;28;20239;-53
2023/04/15 05:17:06;;;;;;;1.10;1.10;;;;;;;;;;5014459;28;20231;-52
2023/04/15 05:19:32;;;;;;;1.20;1.20;;;;;;;;;;5019574;28;20189;-53
2023/04/15 05:21:58;;;;;;;1.10;1.10;;;;;;;;;;5016838;28;20197;-53
2023/04/15 05:24:24;;;;;;;1.10;1.10;;;;;;;;;;5013857;28;20192;-53
2023/04/15 05:26:50;;;;;;;1.10;1.10;;;;;;;;;;5015187;28;20209;-53
2023/04/15 05:29:16;;;;;;;1.10;1.10;;;;;;;;;;5016079;28;20207;-52
2023/04/15 05:31:42;;;;;;;1.13;1.13;;;;;;;;;;5021512;28;20169;-53
2023/04/15 05:34:09;;;;;;;1.30;1.30;;;;;;;;;;5010226;28;20201;-53
2023/04/15 05:36:35;;;;;;;1.20;1.20;;;;;;;;;;5012452;28;20189;-53
2023/04/15 05:39:01;;;;;;;1.27;1.27;;;;;;;;;;5009139;28;20216;-53
2023/04/15 05:41:27;;;;;;;1.13;1.13;;;;;;;;;;4996233;28;20592;-53
2023/04/15 05:43:53;;;;;;;1.17;1.17;;;;;;;;;;5018769;28;20591;-52
2023/04/15 05:46:19;;;;;;;1.10;1.10;;;;;;;;;;5016557;28;20181;-53
2023/04/15 05:48:44;;;;;;;1.20;1.20;;;;;;;;;;5011742;28;20195;-54
2023/04/15 05:51:10;;;;;;;1.10;1.10;;;;;;;;;;5011808;28;20193;-53
2023/04/15 05:53:36;;;;;;;1.10;1.10;;;;;;;;;;5013853;28;20264;-53
2023/04/15 05:56:02;;;;;;;1.33;1.33;;;;;;;;;;5013449;28;20189;-53
2023/04/15 05:58:28;;;;;;;1.20;1.20;;;;;;;;;;5015786;28;20219;-53
2023/04/15 06:00:54;;;;;;;1.00;1.00;;;;;;;;;;5014068;28;20197;-53
2023/04/15 06:03:21;;;;;;;1.20;1.20;;;;;;;;;;5015723;28;20189;-53
2023/04/15 06:05:48;;;;;;;1.13;1.13;;;;;;;;;;5011485;28;20189;-53
2023/04/15 06:08:14;;;;;;;1.20;1.20;;;;;;;;;;5012653;28;20587;-53
2023/04/15 06:10:40;;;;;;;1.20;1.20;;;;;;;;;;5013689;28;20649;-53
2023/04/15 06:13:06;;;;;;;1.33;1.33;;;;;;;;;;5004138;28;20190;-53
2023/04/15 06:15:32;;;;;;;1.40;1.40;;;;;;;;;;4992957;28;20259;-53
2023/04/15 06:18:01;;;;;;;1.40;1.40;;;;;;;;;;5010458;28;20212;-53
2023/04/15 06:20:28;;;;;;;1.30;1.30;;;;;;;;;;5012981;28;20278;-52
2023/04/15 06:22:54;;;;;;;1.20;1.20;;;;;;;;;;4999073;28;20192;-53
2023/04/15 06:25:20;;;;;;;1.20;1.20;;;;;;;;;;5021216;28;20567;-53
2023/04/15 06:27:47;;;;;;;1.00;1.00;;;;;;;;;;5014359;28;20193;-53
2023/04/15 06:30:13;;;;;;;1.20;1.20;;;;;;;;;;5014282;28;20197;-53
2023/04/15 06:32:39;;;;;;;0.80;0.80;;;;;;;;;;5015290;28;20762;-53
2023/04/15 06:35:05;;;;;;;0.90;0.90;;;;;;;;;;5009755;28;20406;-53
2023/04/15 06:37:31;;;;;;;0.70;0.70;;;;;;;;;;5013148;28;20736;-53
2023/04/15 06:39:57;;;;;;;0.80;0.80;;;;;;;;;;5010735;28;20438;-53
2023/04/15 06:42:23;;;;;;;1.10;1.10;;;;;;;;;;5008947;28;20403;-54
2023/04/15 06:44:50;;;;;;;0.70;0.70;;;;;;;;;;5008540;28;20424;-54
2023/04/15 06:47:15;;;;;;;0.80;0.80;;;;;;;;;;5012959;28;20415;-54
2023/04/15 06:49:42;;;;;;;0.70;0.70;;;;;;;;;;4999079;28;21076;-54
2023/04/15 06:52:08;;;;;;;0.90;0.90;;;;;;;;;;5003126;28;20213;-54
2023/04/15 06:54:34;;;;;;;1.13;1.13;;;;;;;;;;4994295;28;20307;-54
2023/04/15 06:57:00;;;;;;;1.20;1.20;;;;;;;;;;4998274;28;20712;-54
2023/04/15 06:59:26;;;;;;;1.50;1.50;;;;;;;;;;5010309;28;20181;-53
2023/04/15 07:01:52;;;;;;;1.60;1.60;;;;;;;;;;5010207;28;20195;-54
2023/04/15 07:04:19;;;;;;;1.20;1.20;;;;;;;;;;5016977;28;20601;-54
2023/04/15 07:06:45;;;;;;;1.10;1.10;;;;;;;;;;5014799;28;20717;-54
2023/04/15 07:09:11;;;;;;;1.30;1.30;;;;;;;;;;5013409;28;20204;-54
2023/04/15 07:11:37;;;;;;;1.20;1.20;;;;;;;;;;5003374;28;20190;-54
2023/04/15 07:14:03;;;;;;;1.10;1.10;;;;;;;;;;5015276;28;20236;-54
2023/04/15 07:16:29;;;;;;;1.20;1.20;;;;;;;;;;5010011;28;20247;-54
2023/04/15 07:18:56;;;;;;;1.00;1.00;;;;;;;;;;5013365;28;20263;-52
2023/04/15 07:21:22;;;;;;;1.20;1.20;;;;;;;;;;5015102;28;20189;-53
2023/04/15 07:23:48;;;;;;;0.90;0.90;;;;;;;;;;5015164;28;20209;-53
2023/04/15 07:26:14;;;;;;;1.20;1.20;;;;;;;;;;5015490;28;20552;-54
2023/04/15 07:28:40;;;;;;;0.90;0.90;;;;;;;;;;5011791;28;20288;-54
2023/04/15 07:31:06;;;;;;;1.10;1.10;;;;;;;;;;5009637;28;20193;-54
2023/04/15 07:33:32;;;;;;;0.80;0.80;;;;;;;;;;5011735;28;20432;-54
2023/04/15 07:35:58;;;;;;;0.90;0.90;;;;;;;;;;5011695;28;20201;-51
2023/04/15 07:38:24;;;;;;;1.30;1.30;;;;;;;;;;5010935;28;20231;-54
2023/04/15 07:40:50;;;;;;;1.00;1.00;;;;;;;;;;5010171;28;20189;-54
2023/04/15 07:43:16;;;;;;;;;;;;;;;;;;5018463;28;20647;-53
2023/04/15 07:45:42;;;;;;;;;;;;;;;;;;5018501;28;19927;-53
2023/04/15 07:48:07;;;;;;;;;;;;;;;;;;5017246;28;19955;-53
2023/04/15 07:50:33;;;;;;;;;;;;;;;;;;5016586;28;19913;-54
2023/04/15 07:52:59;;;;;;;;;;;;;;;;;;5019994;28;19909;-53
2023/04/15 07:55:25;;;;;;;;;;;;;;;;;;5016309;28;19913;-53
2023/04/15 07:57:54;;;;;;;;;;;;;;;;;;5018468;28;20262;-53
2023/04/15 08:00:20;;;;;;;;;;;;;;;;;;5017812;28;19996;-53
2023/04/15 08:02:47;;;;;;;;;;;;;;;;;;5013766;28;19917;-54
2023/04/15 08:05:12;;;;;;;;;;;;;;;;;;4990569;28;22807;-53
2023/04/15 08:07:38;;;;;;;;;;;;;;;;;;4991457;28;19912;-53
2023/04/15 08:10:04;;;;;;;;;;;;;;;;;;5014968;28;19909;-53
2023/04/15 08:12:30;;;;;;;;;;;;;;;;;;5014845;28;19943;-53
2023/04/15 08:14:56;;;;;;;;;;;;;;;;;;5031140;28;20031;-52
2023/04/15 08:17:22;;;;;;;;;;;;;;;;;;5036744;28;20699;-54
2023/04/15 08:19:48;;;;;;;;;;;;;;;;;;5038446;28;20435;-51
2023/04/15 08:22:14;;;;;;;;;;;;;;;;;;5033101;28;20360;-52
2023/04/15 08:24:40;;;;;;;;;;;;;;;;;;5037963;28;19917;-52
2023/04/15 08:27:06;;;;;;;;;;;;;;;;;;5040707;28;19939;-52
2023/04/15 08:29:32;;;;;;;;;;;;;;;;;;5039750;28;20613;-52
2023/04/15 08:31:58;;;;;;;;;;;;;;;;;;5055975;28;20007;-52
2023/04/15 08:34:24;;;;;;;;;;;;;;;;;;5035167;28;19909;-54
2023/04/15 08:36:50;;;;;;;;;;;;;;;;;;5042081;28;19936;-52
2023/04/15 08:39:16;;;;;;;;;;;;;;;;;;5035824;28;19916;-53
2023/04/15 08:41:42;;;;;;;;;;;;;;;;;;5035279;28;19909;-54
2023/04/15 08:44:07;;;;;;;;;;;;;;;;;;5034992;28;20450;-53
2023/04/15 08:46:33;;;;;;;;;;;;;;;;;;5039933;28;19924;-53
2023/04/15 08:48:59;;;;;;;;;;;;;;;;;;5039294;28;19955;-53
2023/04/15 08:51:26;;;;;;;;;;;;;;;;;;5038433;28;20007;-53
2023/04/15 08:53:52;;;;;;;;;;;;;;;;;;5039967;28;20392;-53
2023/04/15 08:56:17;;;;;;;;;;;;;;;;;;5038632;28;20003;-53
2023/04/15 08:58:43;;;;;;;;;;;;;;;;;;5031455;28;19920;-53
2023/04/15 09:01:10;;;;;;;;;;;;;;;;;;5047758;28;20350;-54
2023/04/15 09:03:36;;;;;;;;;;;;;;;;;;5027192;28;19912;-53
2023/04/15 09:06:02;;;;;;;;;;;;;;;;;;5031201;28;19915;-53
2023/04/15 09:08:28;;;;;;;;;;;;;;;;;;5020853;28;19978;-53
2023/04/15 09:10:53;;;;;;;;;;;;;;;;;;5028190;28;19917;-53
2023/04/15 09:13:19;;;;;;;;;;;;;;;;;;5024616;28;20346;-53
2023/04/15 09:15:45;;;;;;;;;;;;;;;;;;5010921;28;19917;-53
2023/04/15 09:18:12;;;;;;;;;;;;;;;;;;5016196;28;20373;-53
2023/04/15 09:20:38;;;;;;;;;;;;;;;;;;5018965;28;19958;-53
2023/04/15 09:23:05;;;;;;;;;;;;;;;;;;5015157;28;20369;-53
2023/04/15 09:25:31;;;;;;;;;;;;;;;;;;5019625;28;19917;-53
2023/04/15 09:27:57;;;;;;;;;;;;;;;;;;5013824;28;19983;-52
2023/04/15 09:30:23;;;;;;;;;;;;;;;;;;5018353;28;19923;-53
2023/04/15 09:32:50;;;;;;;;;;;;;;;;;;5013777;28;20374;-53
2023/04/15 09:35:16;;;;;;;;;;;;;;;;;;5014647;28;20018;-52
2023/04/15 09:37:42;;;;;;;;;;;;;;;;;;5015253;28;20014;-53
2023/04/15 09:40:08;;;;;;;;;;;;;;;;;;5012565;28;20617;-52
2023/04/15 09:42:34;;;;;;;;;;;;;;;;;;5021442;28;19912;-52
2023/04/15 09:45:00;;;;;;;;;;;;;;;;;;5015842;28;19990;-53
2023/04/15 09:47:26;;;;;;;;;;;;;;;;;;5016560;28;19966;-52
2023/04/15 09:49:52;;;;;;;;;;;;;;;;;;5013181;28;19909;-52
2023/04/15 09:52:18;;;;;;;;;;;;;;;;;;5014096;28;19928;-52
2023/04/15 09:54:44;;;;;;;;;;;;;;;;;;5013879;28;20354;-54
2023/04/15 09:57:11;;;;;;;;;;;;;;;;;;5021605;28;19967;-53
2023/04/15 09:59:37;;;;;;;;;;;;;;;;;;5021091;28;19905;-53
2023/04/15 10:02:02;;;;;;;;;;;;;;;;;;5020312;28;19995;-53
2023/04/15 10:04:28;;;;;;;;;;;;;;;;;;5014622;28;19909;-53
2023/04/15 10:06:54;;;;;;;;;;;;;;;;;;5014843;28;19915;-53
2023/04/15 10:09:20;;;;;;;;;;;;;;;;;;5020644;28;20000;-53
2023/04/15 10:11:46;;;;;;;;;;;;;;;;;;5019372;28;20377;-51
2023/04/15 10:14:12;;;;;;;;;;;;;;;;;;5024096;28;20389;-53
2023/04/15 10:16:38;;;;;;;;;;;;;;;;;;5038558;28;20289;-53
2023/04/15 10:19:04;;;;;;;;;;;;;;;;;;5036731;28;19923;-53
2023/04/15 10:21:31;;;;;;;;;;;;;;;;;;5037043;28;19912;-52
2023/04/15 10:23:56;;;;;;;;;;;;;;;;;;5039006;28;19917;-53
2023/04/15 10:26:22;;;;;;;;;;;;;;;;;;5032384;28;20331;-53
2023/04/15 10:28:48;;;;;;;;;;;;;;;;;;5029272;28;19922;-53
2023/04/15 10:31:14;;;;;;;;;;;;;;;;;;5033621;28;20026;-52
2023/04/15 10:33:40;;;;;;;;;;;;;;;;;;5034572;28;19912;-52
2023/04/15 10:36:06;;;;;;;;;;;;;;;;;;5033079;28;19995;-52
2023/04/15 10:38:32;;;;;;;;;;;;;;;;;;5035536;28;19920;-52
2023/04/15 10:40:58;;;;;;;;;;;;;;;;;;5033570;28;20422;-54
2023/04/15 10:43:24;;;;;;;;;;;;;;;;;;5028504;28;20454;-52
2023/04/15 10:45:50;;;;;;;;;;;;;;;;;;5027441;28;19912;-54
2023/04/15 10:48:16;;;;;;;;;;;;;;;;;;5035960;28;20098;-54
2023/04/15 10:50:42;;;;;;;;;;;;;;;;;;5029626;28;19917;-53
2023/04/15 10:53:07;;;;;;;;;;;;;;;;;;5032041;28;19915;-54
2023/04/15 10:55:33;;;;;;;;;;;;;;;;;;5034361;28;19909;-53
2023/04/15 10:58:02;;;;;;;;;;;;;;;;;;5037390;28;21329;-53
2023/04/15 11:00:28;;;;;;;;;;;;;;;;;;5034827;28;19913;-53
2023/04/15 11:02:55;;;;;;;;;;;;;;;;;;5028878;28;19935;-53
2023/04/15 11:05:21;;;;;;;;;;;;;;;;;;5028970;28;20333;-53
2023/04/15 11:07:47;;;;;;;;;;;;;;;;;;5030793;28;19924;-53
2023/04/15 11:10:13;;;;;;;;;;;;;;;;;;5035477;28;20313;-53
2023/04/15 11:12:39;;;;;;;;;;;;;;;;;;5041636;28;19905;-53
2023/04/15 11:15:05;;;;;;;;;;;;;;;;;;5031310;28;19929;-53
2023/04/15 11:17:31;;;;;;;;;;;;;;;;;;5034978;28;20624;-54
2023/04/15 11:19:57;;;;;;;;;;;;;;;;;;5030927;28;19924;-57
2023/04/15 11:22:23;;;;;;;;;;;;;;;;;;5038223;28;19959;-53
2023/04/15 11:24:51;;;;;;;;;;;;;;;;;;5034041;28;20981;-53
2023/04/15 11:27:17;;;;;;;;;;;;;;;;;;5033085;28;19952;-54
2023/04/15 11:29:43;;;;;;;;;;;;;;;;;;5025007;28;20062;-55
2023/04/15 11:32:09;;;;;;;;;;;;;;;;;;5033990;28;19908;-54
2023/04/15 11:34:35;;;;;;;;;;;;;;;;;;5017239;28;20382;-54
2023/04/15 11:37:01;;;;;;;;;;;;;;;;;;5014086;28;19913;-55
2023/04/15 11:39:27;;;;;;;;;;;;;;;;;;5030166;28;19927;-54
2023/04/15 11:41:53;;;;;;;;;;;;;;;;;;5035775;28;19917;-54
2023/04/15 11:44:19;;;;;;;;;;;;;;;;;;5034599;28;19912;-54
2023/04/15 11:46:45;;;;;;;;;;;;;;;;;;5024532;28;20341;-54
2023/04/15 11:49:11;;;;;;;;;;;;;;;;;;5037047;28;19913;-54
2023/04/15 11:51:37;;;;;;;;;;;;;;;;;;5036833;28;19944;-54
2023/04/15 11:54:02;;;;;;;;;;;;;;;;;;5035119;28;20377;-53
2023/04/15 11:56:28;;;;;;;;;;;;;;;;;;5039437;28;19909;-54
2023/04/15 11:58:55;;;;;;;;;;;;;;;;;;5036690;28;19924;-54
2023/04/15 12:01:21;;;;;;;;;;;;;;;;;;5029634;28;19923;-54
2023/04/15 12:03:47;;;;;;;;;;;;;;;;;;5025756;28;19921;-54
2023/04/15 12:06:18;;;;;;;;;;;;;;;;;;5033504;28;19917;-54
2023/04/15 12:08:43;;;;;;;;;;;;;;;;;;5023525;28;19916;-55
2023/04/15 12:11:09;;;;;;;;;;;;;;;;;;5032073;28;19916;-53
2023/04/15 12:13:35;;;;;;;;;;;;;;;;;;5029795;28;19920;-54
2023/04/15 12:16:01;;;;;;;;;;;;;;;;;;5013086;28;19918;-55
2023/04/15 12:18:27;;;;;;;;;;;;;;;;;;5007094;28;20856;-54
2023/04/15 12:20:53;;;;;;;;;;;;;;;;;;5007701;28;19975;-54
2023/04/15 12:23:19;;;;;;;;;;;;;;;;;;5004580;28;19913;-54
2023/04/15 12:25:45;;;;;;;;;;;;;;;;;;5011272;28;19913;-54
2023/04/15 12:28:11;;;;;;;;;;;;;;;;;;5018932;28;19913;-54
2023/04/15 12:30:37;;;;;;;;;;;;;;;;;;5015509;28;20594;-54
2023/04/15 12:33:03;;;;;;;;;;;;;;;;;;5011232;28;21076;-54
2023/04/15 12:35:29;;;;;;;;;;;;;;;;;;5015192;28;19914;-54
2023/04/15 12:37:55;;;;;;;;;;;;;;;;;;5019455;28;20315;-54
2023/04/15 12:40:21;;;;;;;;;;;;;;;;;;5012061;28;19913;-55
2023/04/15 12:42:47;;;;;;;;;;;;;;;;;;5010034;28;19967;-54
2023/04/15 12:45:13;;;;;;;;;;;;;;;;;;5016555;28;19921;-54
2023/04/15 12:47:39;;;;;;;;;;;;;;;;;;5023953;28;20254;-54
2023/04/15 12:50:05;;;;;;;;;;;;;;;;;;5020139;28;19914;-54
2023/04/15 12:52:31;;;;;;;;;;;;;;;;;;5005473;28;20764;-56
2023/04/15 12:54:56;;;;;;;;;;;;;;;;;;5016646;28;19913;-55
2023/04/15 12:57:22;;;;;;;;;;;;;;;;;;5006114;28;19924;-54
2023/04/15 12:59:48;;;;;;;;;;;;;;;;;;5003062;28;19913;-53
2023/04/15 13:02:14;;;;;;;;;;;;;;;;;;5012935;28;22453;-53
2023/04/15 13:04:40;;;;;;;;;;;;;;;;;;5003503;28;19963;-53
2023/04/15 13:07:06;;;;;;;;;;;;;;;;;;5008137;28;20028;-55
2023/04/15 13:09:32;;;;;;;;;;;;;;;;;;5009553;28;19916;-55
2023/04/15 13:11:58;;;;;;;;;;;;;;;;;;5011612;28;19916;-57
2023/04/15 13:14:24;;;;;;;1.25;1.25;;;;;;;;;;5012620;28;20218;-53
2023/04/15 13:16:50;;;;;;;9.88;9.38;;;;;;;;;;5003606;28;20411;-53
2023/04/15 13:19:16;;;;;;;156.03;145.53;;;;;;;;;;5007957;28;20688;-52
2023/04/15 13:21:42;;;;;;;26.70;25.23;;;;;;;;;;5010449;28;20186;-54
2023/04/15 13:24:08;;;;;;;209.57;198.07;;;;;;;;;;5000943;28;20472;-54
2023/04/15 13:26:34;;;;;;;419.02;392.77;;;;;;;;;;5007836;28;20770;-53
2023/04/15 13:29:00;;;;;;;591.83;545.63;;;;;;;;;;5002524;28;20410;-53
2023/04/15 13:31:26;;;;;;;301.95;285.58;;;;;;;;;;5004952;28;20418;-53
2023/04/15 13:33:52;;;;;;;205.35;195.18;;;;;;;;;;5006732;28;20415;-53
2023/04/15 13:36:18;;;;;;;445.17;418.25;;;;;;;;;;5005195;28;20484;-53
2023/04/15 13:38:45;;;;;;;104.20;97.70;;;;;;;;;;4994484;28;20773;-53
2023/04/15 13:41:10;;;;;;;70.43;66.18;;;;;;;;;;5004400;28;20423;-53
2023/04/15 13:43:36;;;;;;;17.95;16.98;;;;;;;;;;5003914;28;21103;-53
2023/04/15 13:46:02;;;;;;;15.52;14.60;;;;;;;;;;5005300;28;20421;-53
2023/04/15 13:48:28;;;;;;;62.60;59.40;;;;;;;;;;5011476;28;20407;-53
2023/04/15 13:50:54;;;;;;;69.07;65.40;;;;;;;;;;5005667;28;20550;-53
2023/04/15 13:53:20;;;;;;;43.15;40.88;;;;;;;;;;5008094;28;20984;-54
2023/04/15 13:55:46;;;;;;;11.85;11.15;;;;;;;;;;4989498;28;20457;-53
2023/04/15 13:58:12;;;;;;;106.70;101.00;;;;;;;;;;5005748;28;21151;-53
2023/04/15 14:00:38;;;;;;;6.85;6.55;;;;;;;;;;5010812;28;20411;-53
2023/04/15 14:03:04;;;;;;;98.65;93.40;;;;;;;;;;4999589;28;20407;-53
2023/04/15 14:05:30;;;;;;;6.30;6.00;;;;;;;;;;5004514;28;20448;-53
2023/04/15 14:07:56;;;;;;;18.92;17.80;;;;;;;;;;5000564;28;20408;-53
2023/04/15 14:10:22;;;;;;;26.88;25.27;;;;;;;;;;5006389;28;20492;-53
2023/04/15 14:12:48;;;;;;;22.13;20.77;;;;;;;;;;5001626;28;20565;-54
2023/04/15 14:15:14;;;;;;;23.08;21.65;;;;;;;;;;5006945;28;20681;-54
2023/04/15 14:17:41;;;;;;;7.75;7.25;;;;;;;;;;5011659;28;20418;-53
2023/04/15 14:20:07;;;;;;;7.22;6.72;;;;;;;;;;5009355;28;20402;-53
2023/04/15 14:22:33;;;;;;;7.57;7.18;;;;;;;;;;5011568;28;20767;-53
2023/04/15 14:24:59;;;;;;;5.30;5.00;;;;;;;;;;4995770;28;20407;-53
2023/04/15 14:27:25;;;;;;;3.90;3.70;;;;;;;;;;5001988;28;20412;-53
2023/04/15 14:29:53;;;;;;;14.27;13.48;;;;;;;;;;5011571;28;21990;-53
2023/04/15 14:32:19;;;;;;;5.13;4.82;;;;;;;;;;5006788;28;20406;-53
2023/04/15 14:34:45;;;;;;;2.50;2.40;;;;;;;;;;5017167;28;20899;-52
2023/04/15 14:37:11;;;;;;;3.17;3.08;;;;;;;;;;5000346;28;20421;-53
2023/04/15 14:39:36;;;;;;;9.57;8.97;;;;;;;;;;5003471;28;20536;-53
2023/04/15 14:42:03;;;;;;;4.30;4.10;;;;;;;;;;4994900;28;20411;-53
2023/04/15 14:44:28;;;;;;;3.50;3.33;;;;;;;;;;5007084;28;20465;-53
2023/04/15 14:46:55;;;;;;;3.75;3.55;;;;;;;;;;5012359;28;20412;-53
2023/04/15 14:49:21;;;;;;;3.40;3.30;;;;;;;;;;5014736;28;20415;-53
2023/04/15 14:51:47;;;;;;;5.15;4.85;;;;;;;;;;5012071;28;20410;-52
2023/04/15 14:54:13;;;;;;;4.73;4.43;;;;;;;;;;5013929;28;20425;-52
2023/04/15 14:56:39;;;;;;;6.03;5.68;;;;;;;;;;5005201;28;20407;-52
2023/04/15 14:59:05;;;;;;;5.05;4.75;;;;;;;;;;5013322;28;20414;-53
2023/04/15 15:01:31;;;;;;;3.88;3.67;;;;;;;;;;4997419;28;20440;-53
2023/04/15 15:03:57;;;;;;;2.95;2.85;;;;;;;;;;4993566;28;20406;-52
2023/04/15 15:06:23;;;;;;;2.30;2.20;;;;;;;;;;4971620;28;20462;-53
2023/04/15 15:08:49;;;;;;;2.50;2.40;;;;;;;;;;4995046;28;20411;-53
2023/04/15 15:11:15;;;;;;;3.47;3.28;;;;;;;;;;5008672;28;20414;-53